createdAt,value
2018-04-11T00:02:06.392Z,29.22
2018-04-11T00:04:36.230Z,29.21
2018-04-11T00:07:06.294Z,29.22
2018-04-11T00:09:35.791Z,29.19
2018-04-11T00:12:05.702Z,29.21
2018-04-11T00:14:35.609Z,29.21
2018-04-11T00:17:05.503Z,29.20
2018-04-11T00:19:35.672Z,29.20
2018-04-11T00:22:05.228Z,29.18
2018-04-11T00:24:35.510Z,29.17
2018-04-11T00:27:05.333Z,29.17
2018-04-11T00:29:34.895Z,29.15
2018-04-11T00:32:05.042Z,29.17
2018-04-11T00:34:35.077Z,29.15
2018-04-11T00:37:04.591Z,29.14
2018-04-11T00:39:34.656Z,29.13
2018-04-11T00:42:04.503Z,29.16
2018-04-11T00:44:34.092Z,29.15
2018-04-11T00:47:03.671Z,29.17
2018-04-11T00:49:32.851Z,29.13
2018-04-11T00:52:02.732Z,29.13
2018-04-11T00:54:31.896Z,29.11
2018-04-11T00:57:01.397Z,29.12
2018-04-11T00:59:30.492Z,29.12
2018-04-11T01:01:59.601Z,29.12
2018-04-11T01:04:29.427Z,29.13
2018-04-11T01:06:59.182Z,29.11
2018-04-11T01:09:29.091Z,29.09
2018-04-11T01:11:58.921Z,29.11
2018-04-11T01:14:28.486Z,29.12
2018-04-11T01:16:58.862Z,29.09
2018-04-11T01:19:28.897Z,29.09
2018-04-11T01:21:58.665Z,29.11
2018-04-11T01:24:28.187Z,29.09
2018-04-11T01:26:57.934Z,29.08
2018-04-11T01:29:28.851Z,29.07
2018-04-11T01:31:58.621Z,29.10
2018-04-11T01:34:28.605Z,29.08
2018-04-11T01:36:58.197Z,29.09
2018-04-11T01:39:27.862Z,29.09
2018-04-11T01:41:58.659Z,29.12
2018-04-11T01:44:28.357Z,29.10
2018-04-11T01:46:58.108Z,29.08
2018-04-11T01:49:27.904Z,29.07
2018-04-11T01:51:57.530Z,29.10
2018-04-11T01:54:27.730Z,29.09
2018-04-11T01:56:57.545Z,29.07
2018-04-11T01:59:27.903Z,29.10
2018-04-11T02:01:57.611Z,29.05
2018-04-11T02:04:26.905Z,29.05
2018-04-11T02:06:56.840Z,29.07
2018-04-11T02:09:26.656Z,29.05
2018-04-11T02:11:56.584Z,29.06
2018-04-11T02:14:26.629Z,29.03
2018-04-11T02:16:56.829Z,29.08
2018-04-11T02:19:26.384Z,29.06
2018-04-11T02:21:55.864Z,29.04
2018-04-11T02:24:25.802Z,29.05
2018-04-11T02:26:55.475Z,29.05
2018-04-11T02:29:25.206Z,29.07
2018-04-11T02:31:55.684Z,29.06
2018-04-11T02:34:25.355Z,29.05
2018-04-11T02:36:55.229Z,29.04
2018-04-11T02:39:24.839Z,29.07
2018-04-11T02:41:55.937Z,29.07
2018-04-11T02:44:25.477Z,29.04
2018-04-11T02:46:55.110Z,29.05
2018-04-11T02:49:25.748Z,29.05
2018-04-11T02:51:55.363Z,29.05
2018-04-11T02:54:25.120Z,29.07
2018-04-11T02:56:54.611Z,29.09
2018-04-11T02:59:24.097Z,29.07
2018-04-11T03:01:53.806Z,29.10
2018-04-11T03:04:23.768Z,29.19
2018-04-11T03:06:53.486Z,29.20
2018-04-11T03:09:31.792Z,29.29
2018-04-11T03:12:03.872Z,29.42
2018-04-11T03:14:39.332Z,29.51
2018-04-11T03:17:17.596Z,29.63
2018-04-11T03:19:56.840Z,29.72
2018-04-11T03:22:26.543Z,29.76
2018-04-11T03:24:56.418Z,29.81
2018-04-11T03:27:26.134Z,29.88
2018-04-11T03:29:55.592Z,29.97
2018-04-11T03:32:25.209Z,30.03
2018-04-11T03:34:55.465Z,30.02
2018-04-11T03:37:25.374Z,30.08
2018-04-11T03:39:55.153Z,30.10
2018-04-11T03:42:24.933Z,30.19
2018-04-11T03:44:54.526Z,30.15
2018-04-11T03:47:24.509Z,30.28
2018-04-11T03:49:54.695Z,30.29
2018-04-11T03:52:24.183Z,30.35
2018-04-11T03:54:53.823Z,30.34
2018-04-11T03:57:24.705Z,30.44
2018-04-11T03:59:54.588Z,30.47
2018-04-11T04:02:24.534Z,30.54
2018-04-11T04:04:54.347Z,30.57
2018-04-11T04:07:23.767Z,30.69
2018-04-11T04:09:53.816Z,30.67
2018-04-11T04:12:24.392Z,30.73
2018-04-11T04:15:05.927Z,30.77
2018-04-11T04:17:46.913Z,30.79
2018-04-11T04:20:23.863Z,30.76
2018-04-11T04:22:53.734Z,30.76
2018-04-11T04:25:24.106Z,30.89
2018-04-11T04:27:54.040Z,30.95
2018-04-11T04:30:25.097Z,30.96
2018-04-11T04:32:54.768Z,30.96
2018-04-11T04:35:26.193Z,30.90
2018-04-11T04:37:56.204Z,30.93
2018-04-11T04:40:26.033Z,30.95
2018-04-11T04:42:56.018Z,30.98
2018-04-11T04:45:25.771Z,31.01
2018-04-11T04:47:55.339Z,31.08
2018-04-11T04:50:25.474Z,31.05
2018-04-11T04:52:55.556Z,31.05
2018-04-11T04:55:25.816Z,31.07
2018-04-11T04:57:55.961Z,31.06
2018-04-11T05:00:25.742Z,31.11
2018-04-11T05:02:55.581Z,31.19
2018-04-11T05:05:25.358Z,31.22
2018-04-11T05:07:55.246Z,31.24
2018-04-11T05:10:25.077Z,31.28
2018-04-11T05:12:54.648Z,31.25
2018-04-11T05:15:23.952Z,31.31
2018-04-11T05:17:53.563Z,31.31
2018-04-11T05:20:23.108Z,31.25
2018-04-11T05:22:52.574Z,31.21
2018-04-11T05:25:22.691Z,31.24
2018-04-11T05:27:52.225Z,31.24
2018-04-11T05:30:22.136Z,31.20
2018-04-11T05:32:51.720Z,31.18
2018-04-11T05:35:20.820Z,31.20
2018-04-11T05:37:50.766Z,31.21
2018-04-11T05:40:20.176Z,31.24
2018-04-11T05:42:50.166Z,31.27
2018-04-11T05:45:20.216Z,31.27
2018-04-11T05:47:49.877Z,31.29
2018-04-11T05:50:19.994Z,31.31
2018-04-11T05:52:49.970Z,31.32
2018-04-11T05:55:19.777Z,31.32
2018-04-11T05:57:49.809Z,31.33
2018-04-11T06:00:19.376Z,31.37
2018-04-11T06:02:49.132Z,31.36
2018-04-11T06:05:18.814Z,31.43
2018-04-11T06:07:48.495Z,31.44
2018-04-11T06:10:19.071Z,31.49
2018-04-11T06:12:48.826Z,31.55
2018-04-11T06:15:18.858Z,31.51
2018-04-11T06:17:48.717Z,31.57
2018-04-11T06:20:18.839Z,31.60
2018-04-11T06:22:48.663Z,31.60
2018-04-11T06:25:18.369Z,31.67
2018-04-11T06:27:48.285Z,31.72
2018-04-11T06:30:17.712Z,31.72
2018-04-11T06:32:47.735Z,31.73
2018-04-11T06:35:17.664Z,31.79
2018-04-11T06:37:47.740Z,31.80
2018-04-11T06:40:17.655Z,31.78
2018-04-11T06:42:47.482Z,31.84
2018-04-11T06:45:17.184Z,31.92
2018-04-11T06:47:46.946Z,31.88
2018-04-11T06:50:17.478Z,31.79
2018-04-11T06:52:47.408Z,31.75
2018-04-11T06:55:16.987Z,31.72
2018-04-11T06:57:46.968Z,31.74
2018-04-11T07:00:15.924Z,31.71
2018-04-11T07:02:45.069Z,31.70
2018-04-11T07:05:14.194Z,31.66
2018-04-11T07:07:43.812Z,31.67
2018-04-11T07:10:12.946Z,31.70
2018-04-11T07:12:42.045Z,31.63
2018-04-11T07:15:11.175Z,31.63
2018-04-11T07:17:40.659Z,31.63
2018-04-11T07:20:09.552Z,31.76
2018-04-11T07:22:38.688Z,31.81
2018-04-11T07:25:08.130Z,31.81
2018-04-11T07:27:37.325Z,31.84
2018-04-11T07:30:06.613Z,31.91
2018-04-11T07:32:35.756Z,31.96
2018-04-11T07:35:04.889Z,31.98
2018-04-11T07:37:34.249Z,32.01
2018-04-11T07:40:03.524Z,32.01
2018-04-11T07:42:32.876Z,32.05
2018-04-11T07:45:02.122Z,32.06
2018-04-11T07:47:31.292Z,32.08
2018-04-11T07:50:00.412Z,32.37
2018-04-11T07:52:29.513Z,32.65
2018-04-11T07:54:58.949Z,32.59
2018-04-11T07:57:28.083Z,32.65
2018-04-11T07:59:57.195Z,32.64
2018-04-11T08:02:26.139Z,32.75
2018-04-11T08:04:55.053Z,32.71
2018-04-11T08:07:24.569Z,32.65
2018-04-11T08:09:53.696Z,32.64
2018-04-11T08:12:23.131Z,32.60
2018-04-11T08:14:52.044Z,32.53
2018-04-11T08:17:21.776Z,32.58
2018-04-11T08:19:50.608Z,32.52
2018-04-11T08:22:19.586Z,32.56
2018-04-11T08:24:48.802Z,32.58
2018-04-11T08:27:18.554Z,32.58
2018-04-11T08:29:47.664Z,32.49
2018-04-11T08:32:16.851Z,32.51
2018-04-11T08:34:45.991Z,32.45
2018-04-11T08:37:15.112Z,32.38
2018-04-11T08:39:46.918Z,32.34
2018-04-11T08:42:17.671Z,32.34
2018-04-11T08:44:47.950Z,32.43
2018-04-11T08:47:17.123Z,32.62
2018-04-11T08:49:46.128Z,32.77
2018-04-11T08:52:15.453Z,32.79
2018-04-11T08:54:44.588Z,32.92
2018-04-11T08:57:13.722Z,32.98
2018-04-11T08:59:46.351Z,33.02
2018-04-11T09:02:15.494Z,33.03
2018-04-11T09:04:44.661Z,33.09
2018-04-11T09:07:13.782Z,33.02
2018-04-11T09:09:42.904Z,32.98
2018-04-11T09:12:12.142Z,32.97
2018-04-11T09:14:41.301Z,32.96
2018-04-11T09:17:10.431Z,32.88
2018-04-11T09:19:39.912Z,32.83
2018-04-11T09:22:09.302Z,32.82
2018-04-11T09:24:38.450Z,32.78
2018-04-11T09:27:07.592Z,32.73
2018-04-11T09:29:36.812Z,32.73
2018-04-11T09:32:06.064Z,32.78
2018-04-11T09:34:35.060Z,32.59
2018-04-11T09:37:04.232Z,32.58
2018-04-11T09:39:33.379Z,32.57
2018-04-11T09:42:02.833Z,32.60
2018-04-11T09:44:32.657Z,32.60
2018-04-11T09:47:01.782Z,32.60
2018-04-11T09:49:31.747Z,32.57
2018-04-11T09:52:01.616Z,32.52
2018-04-11T09:54:30.754Z,32.51
2018-04-11T09:56:59.901Z,32.57
2018-04-11T09:59:29.109Z,32.52
2018-04-11T10:01:59.080Z,32.49
2018-04-11T10:04:28.447Z,32.43
2018-04-11T10:06:57.713Z,32.45
2018-04-11T10:09:27.024Z,32.48
2018-04-11T10:11:56.214Z,32.48
2018-04-11T10:14:25.346Z,32.50
2018-04-11T10:16:54.746Z,32.52
2018-04-11T10:19:24.771Z,32.53
2018-04-11T10:21:54.003Z,32.53
2018-04-11T10:24:22.944Z,32.50
2018-04-11T10:26:53.432Z,32.53
2018-04-11T10:29:23.074Z,32.56
2018-04-11T10:31:52.202Z,32.55
2018-04-11T10:34:22.124Z,32.50
2018-04-11T10:36:51.706Z,32.49
2018-04-11T10:39:20.729Z,32.44
2018-04-11T10:41:50.047Z,32.47
2018-04-11T10:44:19.496Z,32.26
2018-04-11T10:46:48.632Z,32.27
2018-04-11T10:49:17.805Z,32.26
2018-04-11T10:51:47.277Z,32.15
2018-04-11T10:54:16.391Z,32.15
2018-04-11T10:56:46.290Z,32.07
2018-04-11T10:59:16.473Z,32.05
2018-04-11T11:01:45.385Z,32.04
2018-04-11T11:04:14.280Z,32.01
2018-04-11T11:06:44.040Z,32.04
2018-04-11T11:09:13.191Z,32.09
2018-04-11T11:11:42.352Z,32.08
2018-04-11T11:14:11.687Z,32.10
2018-04-11T11:16:40.790Z,32.05
2018-04-11T11:19:09.912Z,32.00
2018-04-11T11:21:39.788Z,31.99
2018-04-11T11:24:08.908Z,32.03
2018-04-11T11:26:37.813Z,31.99
2018-04-11T11:29:06.963Z,31.98
2018-04-11T11:31:36.097Z,31.96
2018-04-11T11:34:05.044Z,31.86
2018-04-11T11:36:33.959Z,31.90
2018-04-11T11:39:02.841Z,31.94
2018-04-11T11:41:31.772Z,31.89
2018-04-11T11:44:01.041Z,31.90
2018-04-11T11:46:30.260Z,31.82
2018-04-11T11:48:59.380Z,31.98
2018-04-11T11:51:28.639Z,31.77
2018-04-11T11:53:57.800Z,31.76
2018-04-11T11:56:27.493Z,31.79
2018-04-11T11:58:56.641Z,31.82
2018-04-11T12:01:25.813Z,31.81
2018-04-11T12:03:55.745Z,31.76
2018-04-11T12:06:25.402Z,31.80
2018-04-11T12:08:54.724Z,31.81
2018-04-11T12:11:24.861Z,31.81
2018-04-11T12:13:54.037Z,31.77
2018-04-11T12:16:23.171Z,31.78
2018-04-11T12:18:52.314Z,31.74
2018-04-11T12:21:21.479Z,31.72
2018-04-11T12:23:52.633Z,31.69
2018-04-11T12:26:22.872Z,31.70
2018-04-11T12:28:52.084Z,31.68
2018-04-11T12:31:21.623Z,31.63
2018-04-11T12:33:51.767Z,31.58
2018-04-11T12:36:20.978Z,31.46
2018-04-11T12:38:50.141Z,31.49
2018-04-11T12:41:19.264Z,31.47
2018-04-11T12:43:48.363Z,31.58
2018-04-11T12:46:17.533Z,31.57
2018-04-11T12:48:46.687Z,31.56
2018-04-11T12:51:15.589Z,31.58
2018-04-11T12:53:44.533Z,31.52
2018-04-11T12:56:13.683Z,31.51
2018-04-11T12:58:43.584Z,31.46
2018-04-11T13:01:12.867Z,31.52
2018-04-11T13:03:42.855Z,31.49
2018-04-11T13:06:12.787Z,31.54
2018-04-11T13:08:42.026Z,31.56
2018-04-11T13:11:11.186Z,31.57
2018-04-11T13:13:40.653Z,31.63
2018-04-11T13:16:09.835Z,31.59
2018-04-11T13:18:38.723Z,31.65
2018-04-11T13:21:07.729Z,31.62
2018-04-11T13:23:36.868Z,31.64
2018-04-11T13:26:05.981Z,31.61
2018-04-11T13:28:35.412Z,31.67
2018-04-11T13:31:04.525Z,31.65
2018-04-11T13:33:33.436Z,31.68
2018-04-11T13:36:02.936Z,31.71
2018-04-11T13:38:32.087Z,31.69
2018-04-11T13:41:01.384Z,31.65
2018-04-11T13:43:30.333Z,31.59
2018-04-11T13:45:59.637Z,31.59
2018-04-11T13:48:28.769Z,31.58
2018-04-11T13:50:57.926Z,31.55
2018-04-11T13:53:26.811Z,31.53
2018-04-11T13:55:55.979Z,31.51
2018-04-11T13:58:25.403Z,31.53
2018-04-11T14:00:54.499Z,31.52
2018-04-11T14:03:23.629Z,31.49
2018-04-11T14:05:52.760Z,31.47
2018-04-11T14:08:22.397Z,31.44
2018-04-11T14:10:51.504Z,31.43
2018-04-11T14:13:20.685Z,31.42
2018-04-11T14:15:49.814Z,31.41
2018-04-11T14:18:18.936Z,31.45
2018-04-11T14:20:48.076Z,31.44
2018-04-11T14:23:17.236Z,31.40
2018-04-11T14:25:46.139Z,31.34
2018-04-11T14:28:15.559Z,31.33
2018-04-11T14:30:44.696Z,31.27
2018-04-11T14:33:13.608Z,31.30
2018-04-11T14:35:42.612Z,31.35
2018-04-11T14:38:11.551Z,31.33
2018-04-11T14:40:41.389Z,31.33
2018-04-11T14:43:10.531Z,31.34
2018-04-11T14:45:39.424Z,31.37
2018-04-11T14:48:09.045Z,31.37
2018-04-11T14:50:38.223Z,31.36
2018-04-11T14:53:07.378Z,31.29
2018-04-11T14:55:36.758Z,31.28
2018-04-11T14:58:05.926Z,31.30
2018-04-11T15:00:35.062Z,31.29
2018-04-11T15:03:04.312Z,31.27
2018-04-11T15:05:34.288Z,31.26
2018-04-11T15:08:05.043Z,31.30
2018-04-11T15:10:34.572Z,31.25
2018-04-11T15:13:03.710Z,31.26
2018-04-11T15:15:32.862Z,31.27
2018-04-11T15:18:01.795Z,31.28
2018-04-11T15:20:30.972Z,31.25
2018-04-11T15:23:00.249Z,31.29
2018-04-11T15:25:29.403Z,31.31
2018-04-11T15:27:58.717Z,31.27
2018-04-11T15:30:27.842Z,31.27
2018-04-11T15:32:56.997Z,31.30
2018-04-11T15:35:26.165Z,31.23
2018-04-11T15:37:55.323Z,31.31
2018-04-11T15:40:24.497Z,31.23
2018-04-11T15:42:53.446Z,31.19
2018-04-11T15:45:23.596Z,31.18
2018-04-11T15:47:53.111Z,31.26
2018-04-11T15:50:23.518Z,31.09
2018-04-11T15:52:52.674Z,31.13
2018-04-11T15:55:22.033Z,31.07
2018-04-11T15:57:52.978Z,31.08
2018-04-11T16:00:23.595Z,31.16
2018-04-11T16:02:52.723Z,31.10
2018-04-11T16:05:22.439Z,31.07
2018-04-11T16:07:52.172Z,30.95
2018-04-11T16:10:22.569Z,30.97
2018-04-11T16:12:51.723Z,30.98
2018-04-11T16:15:20.881Z,30.96
2018-04-11T16:17:50.139Z,30.99
2018-04-11T16:20:19.263Z,30.97
2018-04-11T16:22:48.400Z,31.00
2018-04-11T16:25:17.555Z,31.06
2018-04-11T16:27:46.458Z,31.04
2018-04-11T16:30:15.655Z,31.04
2018-04-11T16:32:44.513Z,31.03
2018-04-11T16:35:13.409Z,31.00
2018-04-11T16:37:42.556Z,31.04
2018-04-11T16:40:11.993Z,31.24
2018-04-11T16:42:41.101Z,31.00
2018-04-11T16:45:10.246Z,30.91
2018-04-11T16:47:39.381Z,30.87
2018-04-11T16:50:08.504Z,30.83
2018-04-11T16:52:37.748Z,30.81
2018-04-11T16:55:07.056Z,30.74
2018-04-11T16:57:36.205Z,30.72
2018-04-11T17:00:05.841Z,30.68
2018-04-11T17:02:34.944Z,30.64
2018-04-11T17:05:04.050Z,30.62
2018-04-11T17:07:33.912Z,30.61
2018-04-11T17:10:03.032Z,30.55
2018-04-11T17:12:32.153Z,30.58
2018-04-11T17:15:01.048Z,30.69
2018-04-11T17:17:29.922Z,30.73
2018-04-11T17:19:58.795Z,30.71
2018-04-11T17:22:38.864Z,30.77
2018-04-11T17:25:19.024Z,30.78
2018-04-11T17:27:59.213Z,30.84
2018-04-11T17:30:39.726Z,30.83
2018-04-11T17:33:08.860Z,30.79
2018-04-11T17:35:37.956Z,30.81
2018-04-11T17:38:07.064Z,30.83
2018-04-11T17:40:36.204Z,30.86
2018-04-11T17:43:05.323Z,30.88
2018-04-11T17:45:34.206Z,30.83
2018-04-11T17:48:03.376Z,30.86
2018-04-11T17:50:32.270Z,30.89
2018-04-11T17:53:01.456Z,30.95
2018-04-11T17:55:30.716Z,31.00
2018-04-11T17:57:59.828Z,31.06
2018-04-11T18:00:28.925Z,31.11
2018-04-11T18:02:58.303Z,31.15
2018-04-11T18:05:27.418Z,31.20
2018-04-11T18:07:56.517Z,31.26
2018-04-11T18:10:25.644Z,31.18
2018-04-11T18:12:54.744Z,31.24
2018-04-11T18:15:23.872Z,31.31
2018-04-11T18:17:53.051Z,31.30
2018-04-11T18:20:22.403Z,31.33
2018-04-11T18:22:51.503Z,31.36
2018-04-11T18:25:20.624Z,31.40
2018-04-11T18:27:49.738Z,31.47
2018-04-11T18:30:18.854Z,31.41
2018-04-11T18:32:47.975Z,31.49
2018-04-11T18:35:17.177Z,31.47
2018-04-11T18:37:46.276Z,31.51
2018-04-11T18:40:15.399Z,31.49
2018-04-11T18:42:44.511Z,31.51
2018-04-11T18:45:13.636Z,31.54
2018-04-11T18:47:42.790Z,31.60
2018-04-11T18:50:11.908Z,31.64
2018-04-11T18:52:41.006Z,31.66
2018-04-11T18:55:10.276Z,31.57
2018-04-11T18:57:39.391Z,31.56
2018-04-11T19:00:08.420Z,31.53
2018-04-11T19:02:37.541Z,31.54
2018-04-11T19:05:06.673Z,31.52
2018-04-11T19:07:35.775Z,31.57
2018-04-11T19:10:04.899Z,31.59
2018-04-11T19:12:34.010Z,31.59
2018-04-11T19:15:03.153Z,31.57
2018-04-11T19:17:32.276Z,31.60
2018-04-11T19:20:01.387Z,31.64
2018-04-11T19:22:30.487Z,31.69
2018-04-11T19:24:59.608Z,31.69
2018-04-11T19:27:28.717Z,31.68
2018-04-11T19:29:57.599Z,31.74
2018-04-11T19:32:26.900Z,31.72
2018-04-11T19:34:56.067Z,31.76
2018-04-11T19:37:25.072Z,31.74
2018-04-11T19:39:54.605Z,31.77
2018-04-11T19:42:23.709Z,31.77
2018-04-11T19:44:52.591Z,31.77
2018-04-11T19:47:21.482Z,31.78
2018-04-11T19:49:50.441Z,31.85
2018-04-11T19:52:19.559Z,31.83
2018-04-11T19:54:48.484Z,31.88
2018-04-11T19:57:17.600Z,31.91
2018-04-11T19:59:46.473Z,31.87
2018-04-11T20:02:15.596Z,31.85
2018-04-11T20:04:44.707Z,31.78
2018-04-11T20:07:13.609Z,31.70
2018-04-11T20:09:42.740Z,31.63
2018-04-11T20:12:11.636Z,31.54
2018-04-11T20:14:40.532Z,31.48
2018-04-11T20:17:09.423Z,31.43
2018-04-11T20:19:38.528Z,31.42
2018-04-11T20:22:07.627Z,31.36
2018-04-11T20:24:36.516Z,31.30
2018-04-11T20:27:05.612Z,31.27
2018-04-11T20:29:34.727Z,31.23
2018-04-11T20:32:04.498Z,31.22
2018-04-11T20:34:33.816Z,31.15
2018-04-11T20:37:03.448Z,31.13
2018-04-11T20:39:32.837Z,31.12
2018-04-11T20:42:02.095Z,31.06
2018-04-11T20:44:31.204Z,31.04
2018-04-11T20:47:00.875Z,31.01
2018-04-11T20:49:30.620Z,30.98
2018-04-11T20:52:00.532Z,30.92
2018-04-11T20:54:30.298Z,30.91
2018-04-11T20:57:00.205Z,30.89
2018-04-11T20:59:29.918Z,30.85
2018-04-11T21:01:59.942Z,30.82
2018-04-11T21:04:29.504Z,30.78
2018-04-11T21:06:59.125Z,30.76
2018-04-11T21:09:28.990Z,30.74
2018-04-11T21:11:59.103Z,30.71
2018-04-11T21:14:28.695Z,30.67
2018-04-11T21:16:58.674Z,30.66
2018-04-11T21:19:28.381Z,30.64
2018-04-11T21:21:58.140Z,30.64
2018-04-11T21:24:27.698Z,30.59
2018-04-11T21:26:57.544Z,30.58
2018-04-11T21:29:28.264Z,30.54
2018-04-11T21:31:58.411Z,30.51
2018-04-11T21:34:28.624Z,30.50
2018-04-11T21:36:58.255Z,30.49
2018-04-11T21:39:28.117Z,30.49
2018-04-11T21:41:58.673Z,30.45
2018-04-11T21:44:28.360Z,30.45
2018-04-11T21:46:57.846Z,30.44
2018-04-11T21:49:27.814Z,30.39
2018-04-11T21:51:57.377Z,30.41
2018-04-11T21:54:27.408Z,30.39
2018-04-11T21:56:56.865Z,30.36
2018-04-11T21:59:26.800Z,30.33
2018-04-11T22:01:56.567Z,30.33
2018-04-11T22:04:26.658Z,30.30
2018-04-11T22:06:56.352Z,30.29
2018-04-11T22:09:26.393Z,30.29
2018-04-11T22:11:56.406Z,30.26
2018-04-11T22:14:25.917Z,30.24
2018-04-11T22:16:55.497Z,30.21
2018-04-11T22:19:25.120Z,30.21
2018-04-11T22:21:54.801Z,30.21
2018-04-11T22:24:24.640Z,30.22
2018-04-11T22:26:54.129Z,30.19
2018-04-11T22:29:23.974Z,30.18
2018-04-11T22:31:54.116Z,30.16
2018-04-11T22:34:23.697Z,30.13
2018-04-11T22:36:53.242Z,30.13
2018-04-11T22:39:23.431Z,30.13
2018-04-11T22:41:52.943Z,30.13
2018-04-11T22:44:22.519Z,30.11
2018-04-11T22:46:52.307Z,30.11
2018-04-11T22:49:21.759Z,30.09
2018-04-11T22:51:51.827Z,30.08
2018-04-11T22:54:21.344Z,30.08
2018-04-11T22:56:51.347Z,30.08
2018-04-11T22:59:20.970Z,30.06
2018-04-11T23:01:50.684Z,30.04
2018-04-11T23:04:20.534Z,30.04
2018-04-11T23:06:50.226Z,30.04
2018-04-11T23:09:19.778Z,30.02
2018-04-11T23:11:49.270Z,30.00
2018-04-11T23:14:19.064Z,30.02
2018-04-11T23:16:48.660Z,29.99
2018-04-11T23:19:19.165Z,29.98
2018-04-11T23:21:49.037Z,29.97
2018-04-11T23:24:18.901Z,29.99
2018-04-11T23:26:48.575Z,29.99
2018-04-11T23:29:18.263Z,29.99
2018-04-11T23:31:48.005Z,29.97
2018-04-11T23:34:17.575Z,29.96
2018-04-11T23:36:47.310Z,29.95
2018-04-11T23:39:16.911Z,29.96
2018-04-11T23:41:46.468Z,29.93
2018-04-11T23:44:15.873Z,29.95
2018-04-11T23:46:46.310Z,29.93
2018-04-11T23:49:17.188Z,29.90
2018-04-11T23:51:47.726Z,29.91
2018-04-11T23:54:17.877Z,29.89
2018-04-11T23:56:47.740Z,29.90
2018-04-11T23:59:17.153Z,29.89
